createdAt,value
2023-01-01T00:00:24.583Z,2934.60
2023-01-01T00:02:52.409Z,3244.80
2023-01-01T00:05:19.185Z,3720.60
2023-01-01T00:07:46.478Z,3576.00
2023-01-01T00:10:13.938Z,3567.60
2023-01-01T00:12:41.320Z,3957.20
2023-01-01T00:15:08.592Z,1756.00
2023-01-01T00:17:38.886Z,3793.40
2023-01-01T00:20:07.438Z,3366.50
2023-01-01T00:22:53.890Z,3015.00
2023-01-01T00:25:22.149Z,2479.00
2023-01-01T00:27:49.837Z,2252.60
2023-01-01T00:30:16.713Z,1934.40
2023-01-01T00:32:54.730Z,2986.00
2023-01-01T00:35:23.407Z,1716.50
2023-01-01T00:37:51.249Z,1227.40
2023-01-01T00:40:18.644Z,2422.50
2023-01-01T00:42:45.815Z,2495.25
2023-01-01T00:45:20.619Z,3212.20
2023-01-01T00:47:51.278Z,2966.60
2023-01-01T00:50:18.955Z,2813.80
2023-01-01T00:52:45.922Z,1805.50
2023-01-01T00:55:13.251Z,2748.00
2023-01-01T00:57:40.142Z,820.50
2023-01-01T01:00:09.017Z,1325.00
2023-01-01T01:02:36.430Z,1293.00
2023-01-01T01:05:06.649Z,1062.20
2023-01-01T01:07:36.012Z,1939.40
2023-01-01T01:10:03.812Z,1539.40
2023-01-01T01:12:30.685Z,1767.40
2023-01-01T01:14:58.332Z,2806.20
2023-01-01T01:17:25.747Z,1714.00
2023-01-01T01:19:53.333Z,1914.20
2023-01-01T01:22:28.029Z,724.00
2023-01-01T01:24:56.785Z,970.00
2023-01-01T01:27:24.094Z,1592.75
2023-01-01T01:29:51.984Z,519.50
2023-01-01T01:32:19.619Z,62.50
2023-01-01T01:34:47.048Z,1106.00
2023-01-01T01:37:14.749Z,1601.40
2023-01-01T01:39:43.776Z,1207.50
2023-01-01T01:42:16.979Z,742.60
2023-01-01T01:44:57.151Z,41.00
2023-01-01T01:47:29.536Z,39.40
2023-01-01T01:50:02.674Z,511.75
2023-01-01T01:52:33.074Z,116.75
2023-01-01T01:55:04.535Z,1675.20
2023-01-01T01:57:33.299Z,17.00
2023-01-01T02:00:08.636Z,20.75
2023-01-01T02:02:44.732Z,1586.60
2023-01-01T02:05:12.342Z,10.75
2023-01-01T02:07:40.398Z,1592.75
2023-01-01T02:10:09.835Z,12.25
2023-01-01T02:12:37.421Z,325.60
2023-01-01T02:15:06.063Z,2005.50
2023-01-01T02:17:39.644Z,710.75
2023-01-01T02:20:36.921Z,2.25
2023-01-01T02:23:30.660Z,8.25
2023-01-01T02:26:15.527Z,1108.25
2023-01-01T02:28:53.287Z,4.25
2023-01-01T02:31:26.597Z,0.50
2023-01-01T02:33:58.347Z,3.00
2023-01-01T02:36:28.765Z,408.75
2023-01-01T02:38:59.218Z,3.00
2023-01-01T02:41:30.499Z,1.25
2023-01-01T02:46:31.994Z,2.00
2023-01-01T02:49:04.687Z,11.75
2023-01-01T02:51:45.572Z,12.00
2023-01-01T02:54:25.795Z,9.25
2023-01-01T02:57:03.514Z,1.00
2023-01-01T02:59:41.078Z,6.25
2023-01-01T03:02:19.766Z,0.25
2023-01-01T03:05:03.499Z,1.75
2023-01-01T03:07:41.298Z,0.00
2023-01-01T03:10:16.052Z,0.00
2023-01-01T03:12:48.269Z,0.50
2023-01-01T03:15:24.134Z,0.75
2023-01-01T03:17:59.025Z,2.75
2023-01-01T03:20:31.454Z,9.00
2023-01-01T03:23:03.918Z,1.00
2023-01-01T03:25:34.461Z,25.33
2023-01-01T03:28:06.652Z,6.00
2023-01-01T03:30:38.715Z,9.00
2023-01-01T03:33:12.906Z,16.25
2023-01-01T03:35:47.044Z,0.00
2023-01-01T03:38:19.846Z,1.00
2023-01-01T03:40:51.766Z,7.25
2023-01-01T03:43:28.044Z,413.50
2023-01-01T03:46:00.851Z,110.25
2023-01-01T03:48:27.756Z,1.25
2023-01-01T03:51:06.436Z,0.75
2023-01-01T03:53:39.733Z,817.00
2023-01-01T03:56:16.402Z,0.00
2023-01-01T03:58:50.096Z,1.25
2023-01-01T04:01:26.376Z,2.25
2023-01-01T04:03:54.906Z,1.50
2023-01-01T04:06:22.267Z,3.50
2023-01-01T04:08:54.242Z,3.00
2023-01-01T04:11:25.419Z,6.25
2023-01-01T04:13:52.706Z,7.00
2023-01-01T04:16:21.784Z,8.75
2023-01-01T04:18:49.073Z,5.75
2023-01-01T04:21:16.608Z,3.25
2023-01-01T04:23:44.119Z,9.25
2023-01-01T04:26:13.459Z,28.75
2023-01-01T04:28:41.185Z,31.00
2023-01-01T04:31:09.242Z,3.50
2023-01-01T04:33:37.914Z,3.00
2023-01-01T04:36:06.203Z,0.75
2023-01-01T04:38:34.323Z,4.50
2023-01-01T04:41:02.308Z,11.50
2023-01-01T04:43:29.819Z,8.25
2023-01-01T04:45:57.222Z,2.00
2023-01-01T04:48:25.168Z,12.00
2023-01-01T04:50:58.000Z,2.00
2023-01-01T04:53:26.324Z,511.25
2023-01-01T04:55:53.592Z,2.25
2023-01-01T04:58:21.069Z,0.75
2023-01-01T05:00:53.459Z,3.00
2023-01-01T05:03:21.154Z,3.00
2023-01-01T05:05:51.327Z,0.00
2023-01-01T05:08:20.461Z,0.25
2023-01-01T05:10:48.072Z,1.00
2023-01-01T05:13:15.489Z,5.75
2023-01-01T05:15:42.771Z,0.00
2023-01-01T05:18:10.773Z,23.00
2023-01-01T05:20:38.038Z,1.00
2023-01-01T05:23:05.358Z,2.25
2023-01-01T05:25:34.206Z,0.00
2023-01-01T05:28:01.637Z,0.75
2023-01-01T05:30:28.933Z,0.00
2023-01-01T05:32:56.255Z,0.50
2023-01-01T05:35:26.527Z,1.00
2023-01-01T05:37:54.535Z,7.25
2023-01-01T05:40:21.914Z,0.25
2023-01-01T05:42:50.639Z,1.25
2023-01-01T05:45:18.159Z,0.00
2023-01-01T05:47:45.614Z,6.75
2023-01-01T05:52:38.730Z,0.75
2023-01-01T05:55:07.163Z,0.00
2023-01-01T05:57:34.067Z,2.00
2023-01-01T06:00:02.821Z,14.25
2023-01-01T06:02:31.689Z,6.00
2023-01-01T06:05:01.575Z,1.00
2023-01-01T06:07:28.712Z,1.25
2023-01-01T06:09:55.993Z,1.00
2023-01-01T06:12:22.773Z,7.50
2023-01-01T06:14:50.120Z,5.00
2023-01-01T06:17:19.139Z,2.50
2023-01-01T06:19:46.427Z,3.00
2023-01-01T06:22:13.693Z,3.75
2023-01-01T06:24:41.256Z,1.25
2023-01-01T06:27:08.929Z,0.50
2023-01-01T06:29:36.248Z,2.00
2023-01-01T06:32:03.913Z,4.00
2023-01-01T06:34:32.724Z,0.50
2023-01-01T06:37:04.703Z,1.00
2023-01-01T06:39:34.515Z,1.00
2023-01-01T06:42:01.778Z,1.00
2023-01-01T06:44:29.040Z,1.00
2023-01-01T06:46:55.737Z,0.00
2023-01-01T06:49:22.922Z,2.00
2023-01-01T06:51:51.707Z,3.75
2023-01-01T06:54:18.637Z,214.75
2023-01-01T06:56:45.855Z,3.75
2023-01-01T06:59:13.773Z,5.75
2023-01-01T07:01:44.376Z,0.50
2023-01-01T07:04:14.067Z,0.50
2023-01-01T07:06:42.599Z,0.75
2023-01-01T07:09:11.859Z,2.00
2023-01-01T07:11:39.109Z,13.25
2023-01-01T07:14:06.685Z,14.50
2023-01-01T07:16:34.260Z,405.75
2023-01-01T07:19:01.416Z,0.50
2023-01-01T07:21:31.644Z,7.75
2023-01-01T07:24:00.491Z,411.00
2023-01-01T07:26:30.663Z,8.00
2023-01-01T07:29:04.608Z,11.00
2023-01-01T07:31:33.907Z,14.00
2023-01-01T07:34:01.549Z,4.25
2023-01-01T07:36:28.993Z,2.00
2023-01-01T07:38:56.002Z,213.75
2023-01-01T07:41:23.368Z,406.50
2023-01-01T07:43:52.176Z,22.75
2023-01-01T07:46:19.441Z,2.25
2023-01-01T07:48:46.922Z,316.75
2023-01-01T07:51:14.267Z,1.50
2023-01-01T07:53:41.672Z,118.50
2023-01-01T07:56:09.516Z,201.50
2023-01-01T07:58:39.981Z,1.00
2023-01-01T08:01:10.470Z,2.50
2023-01-01T08:03:37.401Z,1.25
2023-01-01T08:06:08.429Z,11.50
2023-01-01T08:08:35.912Z,0.75
2023-01-01T08:11:04.068Z,0.75
2023-01-01T08:13:31.864Z,1.25
2023-01-01T08:15:59.270Z,2.25
2023-01-01T08:18:28.522Z,0.00
2023-01-01T08:20:55.887Z,0.00
2023-01-01T08:23:23.837Z,6.00
2023-01-01T08:25:51.040Z,0.00
2023-01-01T08:28:18.816Z,1.75
2023-01-01T08:30:46.469Z,0.00
2023-01-01T08:33:13.991Z,8.00
2023-01-01T08:35:45.581Z,12.75
2023-01-01T08:38:16.610Z,0.00
2023-01-01T08:40:43.896Z,0.00
2023-01-01T08:43:11.308Z,0.00
2023-01-01T08:45:39.304Z,0.50
2023-01-01T08:48:07.127Z,0.25
2023-01-01T08:50:34.463Z,0.00
2023-01-01T08:53:03.177Z,1.00
2023-01-01T08:55:30.609Z,1.00
2023-01-01T08:57:57.779Z,1.00
2023-01-01T09:00:25.132Z,3.75
2023-01-01T09:02:52.588Z,0.75
2023-01-01T09:05:20.048Z,0.00
2023-01-01T09:07:47.738Z,0.50
2023-01-01T09:10:17.628Z,5.00
2023-01-01T09:12:45.340Z,0.00
2023-01-01T09:15:16.031Z,0.75
2023-01-01T09:17:43.525Z,7.00
2023-01-01T09:20:11.083Z,0.00
2023-01-01T09:22:38.443Z,1.00
2023-01-01T09:25:06.345Z,3.25
2023-01-01T09:27:34.979Z,1.25
2023-01-01T09:30:02.763Z,0.00
2023-01-01T09:32:30.324Z,1.00
2023-01-01T09:34:57.515Z,0.25
2023-01-01T09:37:25.206Z,0.75
2023-01-01T09:39:52.586Z,0.50
2023-01-01T09:42:29.438Z,2.00
2023-01-01T09:45:18.819Z,0.50
2023-01-01T09:47:47.850Z,1.00
2023-01-01T09:50:18.953Z,7.75
2023-01-01T09:52:52.922Z,11.25
2023-01-01T09:55:27.014Z,1.00
2023-01-01T09:57:55.925Z,12.75
2023-01-01T10:00:24.817Z,24.00
2023-01-01T10:03:07.304Z,18.75
2023-01-01T10:05:49.529Z,36.40
2023-01-01T10:08:29.343Z,235.75
2023-01-01T10:11:05.573Z,989.60
2023-01-01T10:13:38.326Z,421.75
2023-01-01T10:16:16.002Z,44.40
2023-01-01T10:18:48.617Z,814.50
2023-01-01T10:21:19.571Z,34.00
2023-01-01T10:23:50.075Z,521.75
2023-01-01T10:26:19.411Z,629.00
2023-01-01T10:28:55.185Z,33.00
2023-01-01T10:31:31.830Z,29.20
2023-01-01T10:33:58.987Z,24.50
2023-01-01T10:36:27.147Z,15.75
2023-01-01T10:38:54.394Z,3.50
2023-01-01T10:41:21.796Z,415.00
2023-01-01T10:43:50.097Z,30.50
2023-01-01T10:46:29.444Z,422.25
2023-01-01T10:49:11.192Z,21.75
2023-01-01T10:51:43.944Z,445.80
2023-01-01T10:54:33.048Z,351.60
2023-01-01T10:57:12.830Z,848.40
2023-01-01T10:59:43.096Z,440.20
2023-01-01T11:02:20.558Z,594.20
2023-01-01T11:04:49.862Z,509.00
2023-01-01T11:07:31.063Z,1221.00
2023-01-01T11:10:04.197Z,1130.80
2023-01-01T11:13:04.307Z,1141.40
2023-01-01T11:15:30.901Z,1367.00
2023-01-01T11:18:05.950Z,909.00
2023-01-01T11:20:36.781Z,50.75
2023-01-01T11:23:21.144Z,1136.80
2023-01-01T11:26:04.661Z,1403.75
2023-01-01T11:28:33.424Z,904.60
2023-01-01T11:31:08.069Z,829.20
2023-01-01T11:33:39.319Z,45.20
2023-01-01T11:36:08.397Z,611.25
2023-01-01T11:38:35.948Z,740.40
2023-01-01T11:41:06.362Z,492.60
2023-01-01T11:43:40.115Z,1265.80
2023-01-01T11:46:11.088Z,23.75
2023-01-01T11:48:42.858Z,28.00
2023-01-01T11:51:29.916Z,8.25
2023-01-01T11:54:23.122Z,32.20
2023-01-01T11:56:55.076Z,51.00
2023-01-01T11:59:27.966Z,1105.50
2023-01-01T12:01:59.541Z,29.50
2023-01-01T12:04:36.198Z,27.25
2023-01-01T12:07:08.034Z,9.75
2023-01-01T12:09:42.558Z,16.25
2023-01-01T12:12:15.975Z,220.25
2023-01-01T12:14:51.853Z,606.50
2023-01-01T12:17:25.008Z,303.00
2023-01-01T12:19:59.682Z,13.75
2023-01-01T12:22:28.500Z,14.75
2023-01-01T12:24:56.960Z,22.75
2023-01-01T12:27:47.763Z,15.25
2023-01-01T12:30:21.592Z,2.25
2023-01-01T12:33:12.947Z,7.75
2023-01-01T12:36:15.432Z,8.25
2023-01-01T12:39:18.019Z,6.75
2023-01-01T12:41:56.918Z,3.00
2023-01-01T12:44:36.872Z,9.25
2023-01-01T12:47:15.847Z,5.25
2023-01-01T12:50:08.182Z,5.75
2023-01-01T12:52:51.387Z,1.00
2023-01-01T12:55:41.547Z,1.00
2023-01-01T12:58:15.105Z,1.00
2023-01-01T13:00:46.358Z,109.75
2023-01-01T13:03:21.552Z,22.00
2023-01-01T13:05:52.661Z,7.00
2023-01-01T13:08:20.078Z,0.75
2023-01-01T13:10:49.037Z,10.50
2023-01-01T13:13:19.031Z,1.00
2023-01-01T13:15:49.235Z,4.00
2023-01-01T13:18:23.298Z,6.00
2023-01-01T13:21:03.897Z,1.33
2023-01-01T13:23:51.758Z,7.25
2023-01-01T13:26:42.981Z,206.75
2023-01-01T13:29:43.378Z,3.75
2023-01-01T13:32:13.944Z,3.00
2023-01-01T13:35:04.757Z,4.00
2023-01-01T13:37:41.853Z,390.50
2023-01-01T13:40:47.504Z,3.00
2023-01-01T13:43:30.474Z,18.00
2023-01-01T13:46:12.359Z,3.67
2023-01-01T13:49:13.197Z,0.25
2023-01-01T13:52:06.259Z,4.25
2023-01-01T13:55:18.415Z,1.67
2023-01-01T13:58:08.047Z,6.50
2023-01-01T14:00:49.634Z,0.00
2023-01-01T14:03:19.358Z,2.00
2023-01-01T14:05:50.346Z,3.00
2023-01-01T14:08:31.703Z,15.75
2023-01-01T14:11:01.932Z,396.50
2023-01-01T14:13:30.740Z,6.00
2023-01-01T14:16:00.206Z,2.00
2023-01-01T14:18:33.964Z,9.50
2023-01-01T14:21:02.213Z,3.00
2023-01-01T14:23:34.714Z,12.75
2023-01-01T14:26:06.500Z,2.67
2023-01-01T14:28:35.559Z,1.67
2023-01-01T14:31:10.771Z,3.50
2023-01-01T14:33:38.864Z,9.50
2023-01-01T14:36:14.714Z,3.50
2023-01-01T14:38:45.877Z,2.50
2023-01-01T14:41:19.572Z,497.25
2023-01-01T14:43:49.675Z,2.50
2023-01-01T14:46:19.679Z,211.75
2023-01-01T14:48:49.501Z,128.67
2023-01-01T14:51:22.280Z,12.00
2023-01-01T14:53:54.083Z,679.50
2023-01-01T14:56:27.036Z,11.25
2023-01-01T14:58:58.470Z,2.50
2023-01-01T15:01:27.216Z,3.25
2023-01-01T15:03:59.246Z,1.00
2023-01-01T15:06:27.112Z,1.00
2023-01-01T15:08:56.255Z,6.00
2023-01-01T15:11:28.766Z,0.33
2023-01-01T15:13:59.595Z,4.25
2023-01-01T15:16:27.156Z,4.50
2023-01-01T15:18:54.320Z,1.00
2023-01-01T15:21:34.654Z,1.00
2023-01-01T15:24:09.913Z,2.75
2023-01-01T15:26:42.360Z,2.00
2023-01-01T15:29:14.819Z,9.00
2023-01-01T15:31:45.183Z,2.50
2023-01-01T15:34:22.249Z,2.00
2023-01-01T15:36:50.521Z,1.25
2023-01-01T15:39:19.622Z,2.75
2023-01-01T15:41:48.130Z,2.00
2023-01-01T15:44:27.808Z,3.50
2023-01-01T15:47:05.532Z,1.00
2023-01-01T15:49:33.061Z,1.50
2023-01-01T15:52:05.315Z,1.75
2023-01-01T15:54:39.190Z,1.00
2023-01-01T15:57:17.862Z,3.25
2023-01-01T15:59:45.762Z,6.00
2023-01-01T16:02:17.490Z,2.00
2023-01-01T16:04:48.740Z,3.00
2023-01-01T16:07:19.746Z,2.75
2023-01-01T16:09:51.985Z,0.00
2023-01-01T16:12:24.546Z,3.00
2023-01-01T16:14:51.703Z,1.00
2023-01-01T16:17:20.697Z,2.00
2023-01-01T16:19:48.843Z,2.25
2023-01-01T16:22:17.595Z,1.00
2023-01-01T16:24:45.162Z,0.00
2023-01-01T16:27:14.503Z,1.75
2023-01-01T16:29:43.378Z,2.00
2023-01-01T16:32:17.342Z,4.00
2023-01-01T16:34:44.942Z,5.00
2023-01-01T16:37:11.716Z,4.50
2023-01-01T16:39:39.243Z,3.50
2023-01-01T16:42:09.981Z,3.50
2023-01-01T16:44:41.599Z,14.50
2023-01-01T16:47:08.773Z,29.25
2023-01-01T16:49:37.431Z,23.75
2023-01-01T16:52:05.086Z,22.00
2023-01-01T16:54:32.303Z,24.50
2023-01-01T16:56:59.147Z,20.50
2023-01-01T16:59:26.701Z,26.50
2023-01-01T17:01:55.715Z,420.50
2023-01-01T17:04:23.153Z,22.00
2023-01-01T17:06:51.417Z,24.50
2023-01-01T17:09:18.477Z,22.50
2023-01-01T17:11:45.763Z,27.75
2023-01-01T17:14:13.528Z,33.25
2023-01-01T17:16:41.103Z,14.25
2023-01-01T17:19:15.103Z,10.00
2023-01-01T17:21:43.841Z,6.75
2023-01-01T17:24:11.881Z,9.25
2023-01-01T17:26:39.313Z,8.25
2023-01-01T17:29:07.140Z,15.75
2023-01-01T17:31:34.613Z,6.50
2023-01-01T17:34:02.326Z,14.50
2023-01-01T17:36:31.763Z,9.00
2023-01-01T17:38:58.505Z,14.25
2023-01-01T17:41:26.207Z,5.00
2023-01-01T17:43:54.082Z,2.25
2023-01-01T17:46:24.081Z,3.25
2023-01-01T17:48:51.761Z,3.75
2023-01-01T17:51:20.091Z,7.25
2023-01-01T17:53:49.523Z,4.50
2023-01-01T17:56:18.621Z,3.75
2023-01-01T17:58:46.875Z,8.00
2023-01-01T18:01:27.892Z,11.50
2023-01-01T18:03:57.403Z,5.25
2023-01-01T18:06:25.297Z,15.00
2023-01-01T18:08:57.553Z,2.75
2023-01-01T18:11:26.450Z,1.50
2023-01-01T18:13:53.727Z,9.50
2023-01-01T18:16:21.639Z,29.50
2023-01-01T18:18:48.830Z,25.00
2023-01-01T18:21:18.707Z,24.50
2023-01-01T18:23:46.561Z,808.75
2023-01-01T18:26:15.022Z,8.00
2023-01-01T18:28:43.027Z,9.00
2023-01-01T18:31:12.745Z,9.75
2023-01-01T18:33:41.121Z,8.00
2023-01-01T18:36:10.855Z,6.50
2023-01-01T18:38:38.394Z,5.75
2023-01-01T18:41:24.021Z,4.00
2023-01-01T18:43:51.860Z,9.50
2023-01-01T18:46:20.194Z,13.50
2023-01-01T18:48:47.968Z,11.50
2023-01-01T18:51:22.348Z,11.25
2023-01-01T18:53:51.547Z,12.00
2023-01-01T18:56:20.405Z,12.50
2023-01-01T18:58:47.828Z,12.25
2023-01-01T19:01:17.903Z,11.00
2023-01-01T19:03:48.456Z,24.00
2023-01-01T19:06:26.912Z,16.75
2023-01-01T19:09:02.865Z,11.25
2023-01-01T19:11:32.932Z,25.50
2023-01-01T19:14:12.625Z,12.75
2023-01-01T19:16:40.141Z,9.00
2023-01-01T19:19:16.670Z,17.75
2023-01-01T19:21:51.041Z,20.25
2023-01-01T19:24:26.863Z,20.25
2023-01-01T19:27:00.266Z,19.00
2023-01-01T19:29:30.756Z,17.75
2023-01-01T19:31:58.791Z,12.75
2023-01-01T19:34:26.377Z,22.00
2023-01-01T19:36:54.233Z,26.00
2023-01-01T19:39:21.369Z,447.25
2023-01-01T19:41:48.571Z,46.75
2023-01-01T19:44:24.530Z,26.25
2023-01-01T19:46:52.406Z,23.00
2023-01-01T19:49:20.140Z,35.75
2023-01-01T19:51:47.455Z,88.80
2023-01-01T19:54:14.957Z,113.40
2023-01-01T19:56:41.732Z,88.75
2023-01-01T19:59:08.481Z,77.50
2023-01-01T20:01:37.212Z,1260.60
2023-01-01T20:04:04.737Z,68.60
2023-01-01T20:06:32.388Z,96.80
2023-01-01T20:08:59.882Z,451.20
2023-01-01T20:11:27.607Z,947.00
2023-01-01T20:13:55.334Z,78.80
2023-01-01T20:16:22.105Z,54.75
2023-01-01T20:18:51.333Z,77.20
2023-01-01T20:21:25.662Z,453.60
2023-01-01T20:23:54.226Z,46.00
2023-01-01T20:26:21.098Z,60.75
2023-01-01T20:28:48.414Z,301.40
2023-01-01T20:31:15.267Z,256.50
2023-01-01T20:33:42.464Z,62.33
2023-01-01T20:36:10.661Z,75.40
2023-01-01T20:38:40.338Z,47.25
2023-01-01T20:41:08.122Z,72.00
2023-01-01T20:43:35.551Z,221.20
2023-01-01T20:46:02.923Z,903.00
2023-01-01T20:48:30.106Z,839.60
2023-01-01T20:50:57.370Z,439.80
2023-01-01T20:53:26.174Z,1396.80
2023-01-01T20:55:53.723Z,911.20
2023-01-01T20:58:21.198Z,1789.60
2023-01-01T21:00:48.569Z,835.20
2023-01-01T21:03:16.410Z,540.75
2023-01-01T21:05:43.790Z,1948.00
2023-01-01T21:08:12.139Z,753.60
2023-01-01T21:10:41.242Z,1461.00
2023-01-01T21:13:08.434Z,75.20
2023-01-01T21:15:35.961Z,206.00
2023-01-01T21:18:11.227Z,378.50
2023-01-01T21:20:43.597Z,1245.00
2023-01-01T21:23:15.639Z,621.40
2023-01-01T21:25:51.704Z,236.40
2023-01-01T21:28:20.136Z,80.20
2023-01-01T21:30:50.637Z,66.60
2023-01-01T21:33:25.908Z,2667.60
2023-01-01T21:35:53.408Z,1791.00
2023-01-01T21:38:24.995Z,1973.40
2023-01-01T21:40:55.765Z,692.00
2023-01-01T21:43:34.516Z,1640.50
2023-01-01T21:46:28.622Z,1402.40
2023-01-01T21:48:58.756Z,557.00
2023-01-01T21:51:28.191Z,2448.00
2023-01-01T21:54:17.165Z,1006.60
2023-01-01T21:56:52.308Z,1319.20
2023-01-01T21:59:25.024Z,556.80
2023-01-01T22:01:54.518Z,82.25
2023-01-01T22:04:24.634Z,528.60
2023-01-01T22:06:55.150Z,1321.00
2023-01-01T22:09:23.824Z,2668.20
2023-01-01T22:11:57.967Z,1867.80
2023-01-01T22:14:27.852Z,1964.20
2023-01-01T22:16:56.133Z,608.00
2023-01-01T22:19:28.139Z,543.00
2023-01-01T22:21:55.707Z,1716.00
2023-01-01T22:24:31.483Z,2442.75
2023-01-01T22:27:18.233Z,2287.40
2023-01-01T22:29:46.649Z,1645.60
2023-01-01T22:32:18.890Z,1080.40
2023-01-01T22:34:46.337Z,3405.60
2023-01-01T22:37:18.946Z,1244.75
2023-01-01T22:39:46.427Z,1033.60
2023-01-01T22:42:18.183Z,666.80
2023-01-01T22:44:53.975Z,2126.20
2023-01-01T22:47:21.669Z,696.80
2023-01-01T22:49:51.187Z,1567.40
2023-01-01T22:52:18.807Z,453.40
2023-01-01T22:54:46.062Z,1136.75
2023-01-01T22:57:14.081Z,470.60
2023-01-01T22:59:41.534Z,76.60
2023-01-01T23:02:08.926Z,453.60
2023-01-01T23:04:36.287Z,68.00
2023-01-01T23:07:05.145Z,54.60
2023-01-01T23:09:33.175Z,1080.20
2023-01-01T23:12:01.290Z,851.80
2023-01-01T23:14:34.346Z,856.20
2023-01-01T23:17:05.767Z,1241.20
2023-01-01T23:19:33.197Z,2653.75
2023-01-01T23:22:02.008Z,1048.25
2023-01-01T23:24:31.239Z,2118.40
2023-01-01T23:27:00.803Z,3189.40
2023-01-01T23:29:32.140Z,2168.25
2023-01-01T23:32:00.194Z,1762.00
2023-01-01T23:34:28.320Z,932.80
2023-01-01T23:36:56.318Z,1176.40
2023-01-01T23:39:23.500Z,2167.50
2023-01-01T23:41:51.680Z,244.50
2023-01-01T23:44:19.115Z,1663.00
2023-01-01T23:46:48.156Z,1051.75
2023-01-01T23:49:16.214Z,860.75
2023-01-01T23:51:43.561Z,368.80
2023-01-01T23:54:10.884Z,1061.25
2023-01-01T23:56:38.364Z,1679.60
2023-01-01T23:59:05.668Z,2191.75
